sensor_id;sensor_type;location;lat;lon;timestamp;pressure;altitude;pressure_sealevel;temperature;humidity
25498;BME280;13406;53.380;7.226;2022-10-16T00:01:15;100544.59;;;10.05;100.00
25498;BME280;13406;53.380;7.226;2022-10-16T00:03:43;100672.66;;;10.71;100.00
25498;BME280;13406;53.380;7.226;2022-10-16T00:06:09;100943.25;;;12.43;100.00
25498;BME280;13406;53.380;7.226;2022-10-16T00:08:36;100830.31;;;11.57;100.00
25498;BME280;13406;53.380;7.226;2022-10-16T00:13:33;100720.81;;;11.05;100.00
25498;BME280;13406;53.380;7.226;2022-10-16T00:16:00;100530.34;;;9.84;100.00
25498;BME280;13406;53.380;7.226;2022-10-16T00:18:26;100973.06;;;12.41;100.00
25498;BME280;13406;53.380;7.226;2022-10-16T00:20:52;100611.72;;;10.31;100.00
25498;BME280;13406;53.380;7.226;2022-10-16T00:23:18;100632.34;;;10.37;100.00
25498;BME280;13406;53.380;7.226;2022-10-16T00:25:43;100812.34;;;11.70;100.00
25498;BME280;13406;53.380;7.226;2022-10-16T00:28:09;100690.63;;;10.83;100.00
25498;BME280;13406;53.380;7.226;2022-10-16T00:30:38;100523.16;;;9.98;100.00
25498;BME280;13406;53.380;7.226;2022-10-16T00:33:03;100811.72;;;11.75;100.00
25498;BME280;13406;53.380;7.226;2022-10-16T00:35:30;100657.75;;;10.55;100.00
25498;BME280;13406;53.380;7.226;2022-10-16T00:37:55;100623.94;;;10.47;100.00
25498;BME280;13406;53.380;7.226;2022-10-16T00:40:21;100622.47;;;10.58;100.00
25498;BME280;13406;53.380;7.226;2022-10-16T00:42:46;100793.75;;;11.56;100.00
25498;BME280;13406;53.380;7.226;2022-10-16T00:45:11;100603.47;;;10.33;100.00
25498;BME280;13406;53.380;7.226;2022-10-16T00:47:41;100717.50;;;10.97;100.00
25498;BME280;13406;53.380;7.226;2022-10-16T00:50:26;100584.50;;;10.34;100.00
25498;BME280;13406;53.380;7.226;2022-10-16T00:52:52;100666.66;;;10.69;100.00
25498;BME280;13406;53.380;7.226;2022-10-16T00:55:18;100557.19;;;10.17;100.00
25498;BME280;13406;53.380;7.226;2022-10-16T00:57:44;100690.22;;;10.93;100.00
25498;BME280;13406;53.380;7.226;2022-10-16T01:00:13;100695.56;;;10.93;100.00
25498;BME280;13406;53.380;7.226;2022-10-16T01:02:38;100772.88;;;11.58;100.00
25498;BME280;13406;53.380;7.226;2022-10-16T01:05:05;100726.13;;;10.99;100.00
25498;BME280;13406;53.380;7.226;2022-10-16T01:07:39;100563.81;;;10.22;100.00
25498;BME280;13406;53.380;7.226;2022-10-16T01:10:29;100919.47;;;12.40;100.00
25498;BME280;13406;53.380;7.226;2022-10-16T01:13:18;100962.47;;;12.47;100.00
25498;BME280;13406;53.380;7.226;2022-10-16T01:15:47;100929.59;;;12.38;100.00
25498;BME280;13406;53.380;7.226;2022-10-16T01:18:37;100922.16;;;12.40;100.00
25498;BME280;13406;53.380;7.226;2022-10-16T01:21:13;100682.53;;;10.70;100.00
25498;BME280;13406;53.380;7.226;2022-10-16T01:29:38;100529.13;;;9.93;100.00
25498;BME280;13406;53.380;7.226;2022-10-16T01:32:15;100736.66;;;10.87;100.00
25498;BME280;13406;53.380;7.226;2022-10-16T01:37:30;100834.47;;;11.66;100.00
25498;BME280;13406;53.380;7.226;2022-10-16T01:40:00;100615.56;;;10.15;100.00
25498;BME280;13406;53.380;7.226;2022-10-16T01:42:33;100757.31;;;10.93;100.00
25498;BME280;13406;53.380;7.226;2022-10-16T01:45:00;100662.06;;;10.49;100.00
25498;BME280;13406;53.380;7.226;2022-10-16T01:47:29;100677.16;;;10.57;100.00
25498;BME280;13406;53.380;7.226;2022-10-16T01:49:55;100734.34;;;10.71;100.00
25498;BME280;13406;53.380;7.226;2022-10-16T01:52:25;100596.28;;;9.92;100.00
25498;BME280;13406;53.380;7.226;2022-10-16T01:54:53;100755.47;;;11.00;100.00
25498;BME280;13406;53.380;7.226;2022-10-16T01:57:21;100618.50;;;10.27;100.00
25498;BME280;13406;53.380;7.226;2022-10-16T01:59:50;100803.25;;;11.51;100.00
25498;BME280;13406;53.380;7.226;2022-10-16T02:02:18;100744.69;;;10.87;100.00
25498;BME280;13406;53.380;7.226;2022-10-16T02:04:58;100930.03;;;12.21;100.00
25498;BME280;13406;53.380;7.226;2022-10-16T02:07:24;100891.31;;;11.83;100.00
25498;BME280;13406;53.380;7.226;2022-10-16T02:09:50;100614.19;;;10.33;100.00
25498;BME280;13406;53.380;7.226;2022-10-16T02:12:24;100624.72;;;10.41;100.00
25498;BME280;13406;53.380;7.226;2022-10-16T02:14:51;100823.50;;;11.41;100.00
25498;BME280;13406;53.380;7.226;2022-10-16T02:17:17;100926.09;;;12.24;100.00
25498;BME280;13406;53.380;7.226;2022-10-16T02:19:44;100604.81;;;10.09;100.00
25498;BME280;13406;53.380;7.226;2022-10-16T02:22:34;100803.84;;;11.34;100.00
25498;BME280;13406;53.380;7.226;2022-10-16T02:25:30;100565.19;;;9.98;100.00
25498;BME280;13406;53.380;7.226;2022-10-16T02:30:32;100602.22;;;10.29;100.00
25498;BME280;13406;53.380;7.226;2022-10-16T02:32:59;100785.44;;;11.30;100.00
25498;BME280;13406;53.380;7.226;2022-10-16T02:35:27;100712.94;;;10.91;100.00
25498;BME280;13406;53.380;7.226;2022-10-16T02:37:53;100814.59;;;11.53;100.00
25498;BME280;13406;53.380;7.226;2022-10-16T02:40:19;100643.47;;;10.28;100.00
25498;BME280;13406;53.380;7.226;2022-10-16T02:42:50;100722.81;;;10.83;100.00
25498;BME280;13406;53.380;7.226;2022-10-16T02:45:16;100638.47;;;10.25;100.00
25498;BME280;13406;53.380;7.226;2022-10-16T02:47:41;100588.94;;;10.07;100.00
25498;BME280;13406;53.380;7.226;2022-10-16T02:50:07;100635.41;;;10.28;100.00
25498;BME280;13406;53.380;7.226;2022-10-16T02:52:32;100766.22;;;11.14;100.00
25498;BME280;13406;53.380;7.226;2022-10-16T02:54:58;100629.03;;;10.35;100.00
25498;BME280;13406;53.380;7.226;2022-10-16T02:57:23;100564.19;;;10.12;100.00
25498;BME280;13406;53.380;7.226;2022-10-16T02:59:49;100571.47;;;10.25;100.00
25498;BME280;13406;53.380;7.226;2022-10-16T03:02:14;100694.78;;;10.99;100.00
25498;BME280;13406;53.380;7.226;2022-10-16T03:04:40;100745.16;;;11.04;100.00
25498;BME280;13406;53.380;7.226;2022-10-16T03:07:05;100617.31;;;10.43;100.00
25498;BME280;13406;53.380;7.226;2022-10-16T03:09:31;100897.97;;;12.27;100.00
25498;BME280;13406;53.380;7.226;2022-10-16T03:11:56;100896.50;;;12.31;100.00
25498;BME280;13406;53.380;7.226;2022-10-16T03:14:21;100903.94;;;12.42;100.00
25498;BME280;13406;53.380;7.226;2022-10-16T03:16:47;100899.00;;;12.26;100.00
25498;BME280;13406;53.380;7.226;2022-10-16T03:19:12;100865.09;;;12.05;100.00
25498;BME280;13406;53.380;7.226;2022-10-16T03:21:37;100928.56;;;12.46;100.00
25498;BME280;13406;53.380;7.226;2022-10-16T03:24:03;100868.59;;;12.12;100.00
25498;BME280;13406;53.380;7.226;2022-10-16T03:26:29;100921.72;;;12.43;100.00
25498;BME280;13406;53.380;7.226;2022-10-16T03:28:54;100864.69;;;12.01;100.00
25498;BME280;13406;53.380;7.226;2022-10-16T03:31:19;100908.91;;;12.45;100.00
25498;BME280;13406;53.380;7.226;2022-10-16T03:33:45;100890.91;;;12.32;100.00
25498;BME280;13406;53.380;7.226;2022-10-16T03:36:10;100901.88;;;12.37;100.00
25498;BME280;13406;53.380;7.226;2022-10-16T03:38:35;100916.94;;;12.52;100.00
25498;BME280;13406;53.380;7.226;2022-10-16T03:41:01;100908.91;;;12.45;100.00
25498;BME280;13406;53.380;7.226;2022-10-16T03:43:26;100920.47;;;12.46;100.00
25498;BME280;13406;53.380;7.226;2022-10-16T03:45:52;100850.19;;;12.02;100.00
25498;BME280;13406;53.380;7.226;2022-10-16T03:48:18;100924.41;;;12.43;100.00
25498;BME280;13406;53.380;7.226;2022-10-16T03:50:44;100901.66;;;12.32;100.00
25498;BME280;13406;53.380;7.226;2022-10-16T03:53:09;100847.53;;;11.95;100.00
25498;BME280;13406;53.380;7.226;2022-10-16T03:55:34;100932.06;;;12.46;100.00
25498;BME280;13406;53.380;7.226;2022-10-16T03:58:00;100923.59;;;12.42;100.00
25498;BME280;13406;53.380;7.226;2022-10-16T04:00:26;100878.94;;;12.08;100.00
25498;BME280;13406;53.380;7.226;2022-10-16T04:02:51;100853.09;;;11.94;100.00
25498;BME280;13406;53.380;7.226;2022-10-16T04:05:17;100934.34;;;12.49;100.00
25498;BME280;13406;53.380;7.226;2022-10-16T04:07:42;100880.38;;;12.11;100.00
25498;BME280;13406;53.380;7.226;2022-10-16T04:10:08;100934.56;;;12.48;100.00
25498;BME280;13406;53.380;7.226;2022-10-16T04:12:33;100940.13;;;12.46;100.00
25498;BME280;13406;53.380;7.226;2022-10-16T04:14:59;100814.22;;;11.70;100.00
25498;BME280;13406;53.380;7.226;2022-10-16T04:17:24;100929.78;;;12.50;100.00
25498;BME280;13406;53.380;7.226;2022-10-16T04:19:49;100932.91;;;12.40;100.00
25498;BME280;13406;53.380;7.226;2022-10-16T04:22:15;100925.88;;;12.39;100.00
25498;BME280;13406;53.380;7.226;2022-10-16T04:24:40;100943.25;;;12.36;100.00
25498;BME280;13406;53.380;7.226;2022-10-16T04:27:05;100890.94;;;12.06;100.00
25498;BME280;13406;53.380;7.226;2022-10-16T04:29:31;100943.47;;;12.35;100.00
25498;BME280;13406;53.380;7.226;2022-10-16T04:31:56;100926.72;;;12.19;100.00
25498;BME280;13406;53.380;7.226;2022-10-16T04:34:22;100952.75;;;12.32;100.00
25498;BME280;13406;53.380;7.226;2022-10-16T04:36:48;100939.13;;;12.20;100.00
25498;BME280;13406;53.380;7.226;2022-10-16T04:39:14;100928.19;;;12.15;100.00
25498;BME280;13406;53.380;7.226;2022-10-16T04:41:40;100884.72;;;11.85;100.00
25498;BME280;13406;53.380;7.226;2022-10-16T04:44:05;100955.28;;;12.27;100.00
25498;BME280;13406;53.380;7.226;2022-10-16T04:46:31;100829.91;;;11.46;100.00
25498;BME280;13406;53.380;7.226;2022-10-16T04:48:56;100884.28;;;11.75;100.00
25498;BME280;13406;53.380;7.226;2022-10-16T04:51:22;100961.91;;;12.18;100.00
25498;BME280;13406;53.380;7.226;2022-10-16T04:53:48;100933.75;;;12.01;100.00
25498;BME280;13406;53.380;7.226;2022-10-16T04:56:13;100946.97;;;12.02;100.00
25498;BME280;13406;53.380;7.226;2022-10-16T04:58:40;100979.44;;;12.20;100.00
25498;BME280;13406;53.380;7.226;2022-10-16T05:01:05;100987.50;;;12.20;100.00
25498;BME280;13406;53.380;7.226;2022-10-16T05:03:30;100983.00;;;12.21;100.00
25498;BME280;13406;53.380;7.226;2022-10-16T05:05:56;100894.41;;;11.66;100.00
25498;BME280;13406;53.380;7.226;2022-10-16T05:08:21;100961.66;;;11.99;100.00
25498;BME280;13406;53.380;7.226;2022-10-16T05:10:47;100976.34;;;12.10;100.00
25498;BME280;13406;53.380;7.226;2022-10-16T05:13:12;101001.00;;;12.27;100.00
25498;BME280;13406;53.380;7.226;2022-10-16T05:15:38;100861.69;;;11.36;100.00
25498;BME280;13406;53.380;7.226;2022-10-16T05:18:03;100944.47;;;11.87;100.00
25498;BME280;13406;53.380;7.226;2022-10-16T05:20:29;100958.56;;;11.89;100.00
25498;BME280;13406;53.380;7.226;2022-10-16T05:22:54;101000.34;;;12.12;100.00
25498;BME280;13406;53.380;7.226;2022-10-16T05:25:20;101017.94;;;12.21;100.00
25498;BME280;13406;53.380;7.226;2022-10-16T05:27:48;101025.59;;;12.37;100.00
25498;BME280;13406;53.380;7.226;2022-10-16T05:30:15;101034.09;;;12.34;100.00
25498;BME280;13406;53.380;7.226;2022-10-16T05:32:40;101045.06;;;12.39;100.00
25498;BME280;13406;53.380;7.226;2022-10-16T05:35:06;100999.53;;;12.18;100.00
25498;BME280;13406;53.380;7.226;2022-10-16T05:37:32;100961.88;;;11.98;100.00
25498;BME280;13406;53.380;7.226;2022-10-16T05:39:58;100922.50;;;11.64;100.00
25498;BME280;13406;53.380;7.226;2022-10-16T05:42:23;100999.91;;;12.15;100.00
25498;BME280;13406;53.380;7.226;2022-10-16T05:44:49;100971.16;;;12.09;100.00
25498;BME280;13406;53.380;7.226;2022-10-16T05:47:14;100946.72;;;11.84;100.00
25498;BME280;13406;53.380;7.226;2022-10-16T05:49:40;100993.09;;;11.99;100.00
25498;BME280;13406;53.380;7.226;2022-10-16T05:52:05;101048.34;;;12.28;100.00
25498;BME280;13406;53.380;7.226;2022-10-16T05:54:30;100948.97;;;11.73;100.00
25498;BME280;13406;53.380;7.226;2022-10-16T05:56:56;100985.22;;;11.91;100.00
25498;BME280;13406;53.380;7.226;2022-10-16T05:59:21;101040.91;;;12.30;100.00
25498;BME280;13406;53.380;7.226;2022-10-16T06:01:46;100948.16;;;11.73;100.00
25498;BME280;13406;53.380;7.226;2022-10-16T06:04:12;101049.00;;;12.30;100.00
25498;BME280;13406;53.380;7.226;2022-10-16T06:06:37;101049.81;;;12.31;100.00
25498;BME280;13406;53.380;7.226;2022-10-16T06:09:03;100954.75;;;11.77;100.00
25498;BME280;13406;53.380;7.226;2022-10-16T06:11:31;101051.03;;;12.35;100.00
25498;BME280;13406;53.380;7.226;2022-10-16T06:13:58;100924.75;;;11.53;100.00
25498;BME280;13406;53.380;7.226;2022-10-16T06:16:26;101011.09;;;12.05;100.00
25498;BME280;13406;53.380;7.226;2022-10-16T06:18:53;100980.25;;;11.88;100.00
25498;BME280;13406;53.380;7.226;2022-10-16T06:21:21;100976.88;;;11.79;100.00
25498;BME280;13406;53.380;7.226;2022-10-16T06:23:47;100972.13;;;11.74;100.00
25498;BME280;13406;53.380;7.226;2022-10-16T06:26:15;101051.03;;;12.21;100.00
25498;BME280;13406;53.380;7.226;2022-10-16T06:28:40;101083.78;;;12.45;100.00
25498;BME280;13406;53.380;7.226;2022-10-16T06:31:10;101064.50;;;12.35;100.00
25498;BME280;13406;53.380;7.226;2022-10-16T06:33:37;101019.38;;;12.04;100.00
25498;BME280;13406;53.380;7.226;2022-10-16T06:36:05;101088.72;;;12.48;100.00
25498;BME280;13406;53.380;7.226;2022-10-16T06:38:32;101076.94;;;12.36;100.00
25498;BME280;13406;53.380;7.226;2022-10-16T06:40:58;101099.91;;;12.45;100.00
25498;BME280;13406;53.380;7.226;2022-10-16T06:43:24;101102.78;;;12.43;100.00
25498;BME280;13406;53.380;7.226;2022-10-16T06:45:52;101061.38;;;12.18;100.00
25498;BME280;13406;53.380;7.226;2022-10-16T06:48:17;101032.19;;;11.95;100.00
25498;BME280;13406;53.380;7.226;2022-10-16T06:50:43;101098.88;;;12.39;100.00
25498;BME280;13406;53.380;7.226;2022-10-16T06:53:08;101100.69;;;12.32;100.00
25498;BME280;13406;53.380;7.226;2022-10-16T06:55:34;101032.97;;;11.89;100.00
25498;BME280;13406;53.380;7.226;2022-10-16T06:57:59;101075.22;;;12.15;100.00
25498;BME280;13406;53.380;7.226;2022-10-16T07:00:24;101073.56;;;12.20;100.00
25498;BME280;13406;53.380;7.226;2022-10-16T07:02:50;101118.75;;;12.52;100.00
25498;BME280;13406;53.380;7.226;2022-10-16T07:05:15;101051.63;;;12.10;100.00
25498;BME280;13406;53.380;7.226;2022-10-16T07:07:41;101127.88;;;12.57;100.00
25498;BME280;13406;53.380;7.226;2022-10-16T07:10:07;101098.63;;;12.41;100.00
25498;BME280;13406;53.380;7.226;2022-10-16T07:12:33;101135.34;;;12.69;100.00
25498;BME280;13406;53.380;7.226;2022-10-16T07:14:58;101134.28;;;12.63;100.00
25498;BME280;13406;53.380;7.226;2022-10-16T07:17:23;101148.19;;;12.73;100.00
25498;BME280;13406;53.380;7.226;2022-10-16T07:19:49;101070.69;;;12.15;100.00
25498;BME280;13406;53.380;7.226;2022-10-16T07:22:14;101060.75;;;12.09;100.00
25498;BME280;13406;53.380;7.226;2022-10-16T07:24:40;101153.34;;;12.68;100.00
25498;BME280;13406;53.380;7.226;2022-10-16T07:27:05;101108.56;;;12.40;100.00
25498;BME280;13406;53.380;7.226;2022-10-16T07:29:30;101142.78;;;12.66;100.00
25498;BME280;13406;53.380;7.226;2022-10-16T07:31:56;101168.25;;;12.77;100.00
25498;BME280;13406;53.380;7.226;2022-10-16T07:34:21;101129.28;;;12.47;100.00
25498;BME280;13406;53.380;7.226;2022-10-16T07:36:49;101192.72;;;12.82;100.00
25498;BME280;13406;53.380;7.226;2022-10-16T07:39:14;101147.97;;;12.68;100.00
25498;BME280;13406;53.380;7.226;2022-10-16T07:41:40;101180.47;;;12.80;100.00
25498;BME280;13406;53.380;7.226;2022-10-16T07:44:05;101193.72;;;12.81;100.00
25498;BME280;13406;53.380;7.226;2022-10-16T07:46:31;101192.25;;;12.72;100.00
25498;BME280;13406;53.380;7.226;2022-10-16T07:48:58;101192.50;;;12.84;100.00
25498;BME280;13406;53.380;7.226;2022-10-16T07:51:25;101096.94;;;12.20;100.00
25498;BME280;13406;53.380;7.226;2022-10-16T07:53:53;101180.47;;;12.73;100.00
25498;BME280;13406;53.380;7.226;2022-10-16T07:56:19;101196.63;;;12.86;100.00
25498;BME280;13406;53.380;7.226;2022-10-16T07:58:45;101193.13;;;12.79;100.00
25498;BME280;13406;53.380;7.226;2022-10-16T08:01:12;101112.28;;;12.26;100.00
25498;BME280;13406;53.380;7.226;2022-10-16T08:03:41;101151.44;;;12.49;100.00
25498;BME280;13406;53.380;7.226;2022-10-16T08:06:07;101236.81;;;12.95;100.00
25498;BME280;13406;53.380;7.226;2022-10-16T08:08:32;101226.28;;;13.06;100.00
25498;BME280;13406;53.380;7.226;2022-10-16T08:10:58;101162.66;;;12.65;100.00
25498;BME280;13406;53.380;7.226;2022-10-16T08:13:23;101231.06;;;13.11;100.00
25498;BME280;13406;53.380;7.226;2022-10-16T08:15:49;101231.47;;;13.15;100.00
25498;BME280;13406;53.380;7.226;2022-10-16T08:18:15;101226.50;;;13.18;100.00
25498;BME280;13406;53.380;7.226;2022-10-16T08:20:42;101211.16;;;13.12;100.00
25498;BME280;13406;53.380;7.226;2022-10-16T08:23:10;101135.75;;;12.65;100.00
25498;BME280;13406;53.380;7.226;2022-10-16T08:25:36;101241.00;;;13.24;100.00
25498;BME280;13406;53.380;7.226;2022-10-16T08:28:06;101225.50;;;13.32;100.00
25498;BME280;13406;53.380;7.226;2022-10-16T08:30:32;101232.09;;;13.23;100.00
25498;BME280;13406;53.380;7.226;2022-10-16T08:32:57;101238.97;;;13.32;100.00
25498;BME280;13406;53.380;7.226;2022-10-16T08:35:23;101254.31;;;13.52;100.00
25498;BME280;13406;53.380;7.226;2022-10-16T08:37:49;101158.34;;;12.98;100.00
25498;BME280;13406;53.380;7.226;2022-10-16T08:40:20;101255.56;;;13.63;100.00
25498;BME280;13406;53.380;7.226;2022-10-16T08:48:35;101272.75;;;13.68;100.00
25498;BME280;13406;53.380;7.226;2022-10-16T08:51:05;101240.41;;;13.42;100.00
25498;BME280;13406;53.380;7.226;2022-10-16T08:53:53;101239.59;;;13.34;100.00
25498;BME280;13406;53.380;7.226;2022-10-16T08:56:19;101274.00;;;13.59;100.00
25498;BME280;13406;53.380;7.226;2022-10-16T08:58:46;101259.28;;;13.48;100.00
25498;BME280;13406;53.380;7.226;2022-10-16T09:01:14;101207.88;;;13.17;100.00
25498;BME280;13406;53.380;7.226;2022-10-16T09:06:34;101241.03;;;13.64;100.00
25498;BME280;13406;53.380;7.226;2022-10-16T09:12:15;101277.44;;;14.13;100.00
25498;BME280;13406;53.380;7.226;2022-10-16T09:15:13;101285.09;;;14.22;100.00
25498;BME280;13406;53.380;7.226;2022-10-16T09:20:32;101289.41;;;14.37;100.00
25498;BME280;13406;53.380;7.226;2022-10-16T09:23:16;101253.09;;;14.33;100.00
25498;BME280;13406;53.380;7.226;2022-10-16T09:25:45;101088.53;;;13.03;100.00
25498;BME280;13406;53.380;7.226;2022-10-16T09:28:11;101016.09;;;12.55;100.00
25498;BME280;13406;53.380;7.226;2022-10-16T09:30:37;101027.69;;;12.49;100.00
25498;BME280;13406;53.380;7.226;2022-10-16T09:33:04;101001.19;;;12.39;100.00
25498;BME280;13406;53.380;7.226;2022-10-16T09:35:45;101115.88;;;13.06;100.00
25498;BME280;13406;53.380;7.226;2022-10-16T09:38:22;101172.78;;;13.76;100.00
25498;BME280;13406;53.380;7.226;2022-10-16T09:40:51;100947.59;;;12.37;100.00
25498;BME280;13406;53.380;7.226;2022-10-16T09:43:23;101003.66;;;12.74;100.00
25498;BME280;13406;53.380;7.226;2022-10-16T09:46:04;101224.59;;;13.85;100.00
25498;BME280;13406;53.380;7.226;2022-10-16T09:48:39;101210.13;;;13.66;100.00
25498;BME280;13406;53.380;7.226;2022-10-16T09:51:19;101013.41;;;12.68;100.00
25498;BME280;13406;53.380;7.226;2022-10-16T09:53:46;101162.47;;;13.47;100.00
25498;BME280;13406;53.380;7.226;2022-10-16T09:56:22;101005.97;;;12.70;100.00
25498;BME280;13406;53.380;7.226;2022-10-16T09:58:52;101180.66;;;13.78;100.00
25498;BME280;13406;53.380;7.226;2022-10-16T10:01:19;100919.66;;;12.52;100.00
25498;BME280;13406;53.380;7.226;2022-10-16T10:04:02;100943.19;;;12.83;100.00
25498;BME280;13406;53.380;7.226;2022-10-16T10:06:31;101117.53;;;13.99;100.00
25498;BME280;13406;53.380;7.226;2022-10-16T10:09:15;101296.53;;;15.14;100.00
25498;BME280;13406;53.380;7.226;2022-10-16T10:19:44;101115.38;;;14.14;100.00
25498;BME280;13406;53.380;7.226;2022-10-16T10:22:44;101183.09;;;14.83;100.00
25498;BME280;13406;53.380;7.226;2022-10-16T10:30:27;101307.66;;;15.31;100.00
25498;BME280;13406;53.380;7.226;2022-10-16T10:38:39;101312.28;;;15.81;100.00
25498;BME280;13406;53.380;7.226;2022-10-16T10:41:33;100986.81;;;14.01;100.00
25498;BME280;13406;53.380;7.226;2022-10-16T10:55:14;101311.16;;;16.32;100.00
25498;BME280;13406;53.380;7.226;2022-10-16T10:58:21;101172.78;;;15.67;100.00
25498;BME280;13406;53.380;7.226;2022-10-16T11:01:09;101313.91;;;16.07;100.00
25498;BME280;13406;53.380;7.226;2022-10-16T11:06:36;101066.59;;;14.47;100.00
25498;BME280;13406;53.380;7.226;2022-10-16T11:09:18;101207.16;;;15.85;100.00
25498;BME280;13406;53.380;7.226;2022-10-16T11:11:52;101219.03;;;15.84;100.00
25498;BME280;13406;53.380;7.226;2022-10-16T11:17:14;101081.16;;;14.78;100.00
25498;BME280;13406;53.380;7.226;2022-10-16T11:19:57;101151.63;;;14.95;100.00
25498;BME280;13406;53.380;7.226;2022-10-16T11:33:04;101353.56;;;16.38;100.00
25498;BME280;13406;53.380;7.226;2022-10-16T11:35:43;101351.28;;;16.54;100.00
25498;BME280;13406;53.380;7.226;2022-10-16T11:38:31;101151.97;;;15.05;100.00
25498;BME280;13406;53.380;7.226;2022-10-16T11:49:30;101126.28;;;15.58;100.00
25498;BME280;13406;53.380;7.226;2022-10-16T11:52:08;101364.81;;;17.39;100.00
25498;BME280;13406;53.380;7.226;2022-10-16T11:57:19;101195.50;;;16.02;100.00
25498;BME280;13406;53.380;7.226;2022-10-16T11:59:51;101241.28;;;16.71;100.00
25498;BME280;13406;53.380;7.226;2022-10-16T12:07:46;101217.09;;;16.76;100.00
25498;BME280;13406;53.380;7.226;2022-10-16T12:10:22;101378.66;;;17.61;100.00
25498;BME280;13406;53.380;7.226;2022-10-16T12:12:48;101237.78;;;17.12;100.00
25498;BME280;13406;53.380;7.226;2022-10-16T12:17:48;101188.44;;;17.81;100.00
25498;BME280;13406;53.380;7.226;2022-10-16T12:22:55;101208.97;;;17.89;100.00
25498;BME280;13406;53.380;7.226;2022-10-16T12:25:30;101274.81;;;19.51;100.00
25498;BME280;13406;53.380;7.226;2022-10-16T12:28:06;101458.22;;;19.67;100.00
25498;BME280;13406;53.380;7.226;2022-10-16T12:30:43;101390.03;;;19.73;100.00
25498;BME280;13406;53.380;7.226;2022-10-16T12:33:24;101247.31;;;18.44;100.00
25498;BME280;13406;53.380;7.226;2022-10-16T12:35:51;101254.16;;;22.84;100.00
25498;BME280;13406;53.380;7.226;2022-10-16T12:40:43;101343.78;;;21.76;100.00
25498;BME280;13406;53.380;7.226;2022-10-16T12:43:26;101246.78;;;18.59;100.00
25498;BME280;13406;53.380;7.226;2022-10-16T12:46:05;101458.69;;;19.63;100.00
25498;BME280;13406;53.380;7.226;2022-10-16T12:48:31;101171.69;;;17.84;100.00
25498;BME280;13406;53.380;7.226;2022-10-16T12:50:57;101205.78;;;23.10;100.00
25498;BME280;13406;53.380;7.226;2022-10-16T12:53:26;101223.50;;;24.59;100.00
25498;BME280;13406;53.380;7.226;2022-10-16T12:56:00;101207.31;;;25.60;100.00
25498;BME280;13406;53.380;7.226;2022-10-16T13:09:41;101504.63;;;17.16;100.00
25498;BME280;13406;53.380;7.226;2022-10-16T13:15:11;101519.22;;;16.72;100.00
25498;BME280;13406;53.380;7.226;2022-10-16T13:20:46;101189.84;;;17.13;100.00
25498;BME280;13406;53.380;7.226;2022-10-16T13:23:25;101379.69;;;19.13;100.00
25498;BME280;13406;53.380;7.226;2022-10-16T13:26:05;101261.84;;;19.24;100.00
25498;BME280;13406;53.380;7.226;2022-10-16T13:28:35;101232.69;;;19.36;100.00
25498;BME280;13406;53.380;7.226;2022-10-16T13:31:03;101295.19;;;21.78;100.00
25498;BME280;13406;53.380;7.226;2022-10-16T13:33:41;101512.84;;;23.27;100.00
25498;BME280;13406;53.380;7.226;2022-10-16T13:36:22;101508.72;;;22.72;100.00
25498;BME280;13406;53.380;7.226;2022-10-16T13:38:48;101295.19;;;21.41;100.00
25498;BME280;13406;53.380;7.226;2022-10-16T13:41:17;101345.38;;;22.04;100.00
25498;BME280;13406;53.380;7.226;2022-10-16T13:43:49;101360.13;;;20.29;100.00
25498;BME280;13406;53.380;7.226;2022-10-16T13:46:20;101237.09;;;20.15;100.00
25498;BME280;13406;53.380;7.226;2022-10-16T13:49:14;101260.47;;;18.64;100.00
25498;BME280;13406;53.380;7.226;2022-10-16T13:51:40;101531.56;;;19.73;100.00
25498;BME280;13406;53.380;7.226;2022-10-16T13:54:09;101339.88;;;19.24;100.00
25498;BME280;13406;53.380;7.226;2022-10-16T13:56:38;101279.81;;;18.80;100.00
25498;BME280;13406;53.380;7.226;2022-10-16T13:59:06;101424.81;;;24.07;100.00
25498;BME280;13406;53.380;7.226;2022-10-16T14:01:52;101328.66;;;23.57;100.00
25498;BME280;13406;53.380;7.226;2022-10-16T14:04:19;101293.34;;;23.20;100.00
25498;BME280;13406;53.380;7.226;2022-10-16T14:06:47;101337.00;;;26.64;82.60
25498;BME280;13406;53.380;7.226;2022-10-16T14:09:22;101520.59;;;27.54;78.80
25498;BME280;13406;53.380;7.226;2022-10-16T14:11:52;101460.97;;;24.55;92.98
25498;BME280;13406;53.380;7.226;2022-10-16T14:14:19;101342.50;;;25.08;81.33
25498;BME280;13406;53.380;7.226;2022-10-16T14:16:45;101356.78;;;25.88;76.46
25498;BME280;13406;53.380;7.226;2022-10-16T14:19:25;101421.53;;;26.29;71.09
25498;BME280;13406;53.380;7.226;2022-10-16T14:21:52;101355.88;;;25.98;66.03
25498;BME280;13406;53.380;7.226;2022-10-16T14:24:34;101365.25;;;26.50;62.55
25498;BME280;13406;53.380;7.226;2022-10-16T14:27:01;101453.22;;;26.79;60.50
25498;BME280;13406;53.380;7.226;2022-10-16T14:29:28;101339.19;;;25.16;63.67
25498;BME280;13406;53.380;7.226;2022-10-16T14:32:01;101375.50;;;25.86;65.28
25498;BME280;13406;53.380;7.226;2022-10-16T14:34:35;101353.88;;;25.40;62.14
25498;BME280;13406;53.380;7.226;2022-10-16T14:37:08;101373.25;;;25.10;64.50
25498;BME280;13406;53.380;7.226;2022-10-16T14:39:35;101322.59;;;24.92;67.53
25498;BME280;13406;53.380;7.226;2022-10-16T14:42:00;101407.41;;;24.88;66.73
25498;BME280;13406;53.380;7.226;2022-10-16T14:44:32;101505.97;;;24.59;76.89
25498;BME280;13406;53.380;7.226;2022-10-16T14:47:07;101349.16;;;20.85;100.00